Stratford, United Kingdom
Current Conditions -  °F | °C
As of 12:20 AM on Saturday 22 Nov 2014 (Local Time) from EGLC Reporting Station
Haze Haze  
Wind Chill: 52°   Ceiling: 800
Heat Index: 52°   Visibility: 3mi
Dew Point: 48°   Wind: 6mph
Humidity: 88%   Direction: 120°ESE
Pressure: 29.88"   Gusts: NA
Location:  51.54°N, 0°W
Report Text: EGLC 220020Z AUTO 12005KT 4800 BR FEW006/// BKN008/// 11/09 Q1012
Loading
Personal Weather Stations






























Interactive Weather Map New forecast layout! Learn more

10-Day Weather Forecast

Advertisements
Track Severe Weather on mobile